sensor_id;sensor_type;location;lat;lon;timestamp;temperature;humidity
40287;DHT22;25998;46.604;13.610;2023-10-08T00:02:49;15.40;99.90
40287;DHT22;25998;46.604;13.610;2023-10-08T00:06:03;15.60;99.90
40287;DHT22;25998;46.604;13.610;2023-10-08T00:09:25;15.50;99.90
40287;DHT22;25998;46.604;13.610;2023-10-08T00:12:36;15.50;99.90
40287;DHT22;25998;46.604;13.610;2023-10-08T00:15:47;15.50;99.90
40287;DHT22;25998;46.604;13.610;2023-10-08T00:19:06;15.50;99.90
40287;DHT22;25998;46.604;13.610;2023-10-08T00:22:25;15.70;99.90
40287;DHT22;25998;46.604;13.610;2023-10-08T00:25:36;15.50;99.90
40287;DHT22;25998;46.604;13.610;2023-10-08T00:28:51;15.40;99.90
40287;DHT22;25998;46.604;13.610;2023-10-08T00:32:02;15.50;99.90
40287;DHT22;25998;46.604;13.610;2023-10-08T00:35:22;15.60;99.90
40287;DHT22;25998;46.604;13.610;2023-10-08T00:38:32;15.60;99.90
40287;DHT22;25998;46.604;13.610;2023-10-08T00:41:44;15.50;99.90
40287;DHT22;25998;46.604;13.610;2023-10-08T00:44:55;15.60;99.90
40287;DHT22;25998;46.604;13.610;2023-10-08T00:48:07;15.70;99.90
40287;DHT22;25998;46.604;13.610;2023-10-08T00:51:18;15.70;99.90
40287;DHT22;25998;46.604;13.610;2023-10-08T00:54:32;15.90;99.90
40287;DHT22;25998;46.604;13.610;2023-10-08T00:57:58;15.80;99.90
40287;DHT22;25998;46.604;13.610;2023-10-08T01:01:18;15.60;99.90
40287;DHT22;25998;46.604;13.610;2023-10-08T01:04:31;15.50;99.90
40287;DHT22;25998;46.604;13.610;2023-10-08T01:07:46;15.50;99.90
40287;DHT22;25998;46.604;13.610;2023-10-08T01:10:59;15.50;99.90
40287;DHT22;25998;46.604;13.610;2023-10-08T01:14:11;15.50;99.90
40287;DHT22;25998;46.604;13.610;2023-10-08T01:17:23;15.50;99.90
40287;DHT22;25998;46.604;13.610;2023-10-08T01:20:37;15.70;99.90
40287;DHT22;25998;46.604;13.610;2023-10-08T01:23:49;15.70;99.90
40287;DHT22;25998;46.604;13.610;2023-10-08T01:27:00;15.90;99.90
40287;DHT22;25998;46.604;13.610;2023-10-08T01:30:15;15.70;99.90
40287;DHT22;25998;46.604;13.610;2023-10-08T01:33:28;15.80;99.90
40287;DHT22;25998;46.604;13.610;2023-10-08T01:36:42;15.80;99.90
40287;DHT22;25998;46.604;13.610;2023-10-08T01:39:56;15.70;99.90
40287;DHT22;25998;46.604;13.610;2023-10-08T01:43:11;15.70;99.90
40287;DHT22;25998;46.604;13.610;2023-10-08T01:46:25;15.70;99.90
40287;DHT22;25998;46.604;13.610;2023-10-08T01:49:39;15.60;99.90
40287;DHT22;25998;46.604;13.610;2023-10-08T01:52:50;15.50;99.90
40287;DHT22;25998;46.604;13.610;2023-10-08T01:56:05;15.50;99.90
40287;DHT22;25998;46.604;13.610;2023-10-08T01:59:16;15.40;99.90
40287;DHT22;25998;46.604;13.610;2023-10-08T02:02:27;15.40;99.90
40287;DHT22;25998;46.604;13.610;2023-10-08T02:05:38;15.50;99.90
40287;DHT22;25998;46.604;13.610;2023-10-08T02:08:52;15.60;99.90
40287;DHT22;25998;46.604;13.610;2023-10-08T02:12:03;15.60;99.90
40287;DHT22;25998;46.604;13.610;2023-10-08T02:15:14;15.70;99.90
40287;DHT22;25998;46.604;13.610;2023-10-08T02:18:26;15.70;99.90
40287;DHT22;25998;46.604;13.610;2023-10-08T02:21:40;15.60;99.90
40287;DHT22;25998;46.604;13.610;2023-10-08T02:24:51;15.50;99.90
40287;DHT22;25998;46.604;13.610;2023-10-08T02:28:04;15.40;99.90
40287;DHT22;25998;46.604;13.610;2023-10-08T02:31:15;15.40;99.90
40287;DHT22;25998;46.604;13.610;2023-10-08T02:34:26;15.50;99.90
40287;DHT22;25998;46.604;13.610;2023-10-08T02:37:37;15.50;99.90
40287;DHT22;25998;46.604;13.610;2023-10-08T02:40:51;15.50;99.90
40287;DHT22;25998;46.604;13.610;2023-10-08T02:44:05;15.50;99.90
40287;DHT22;25998;46.604;13.610;2023-10-08T02:47:16;15.30;99.90
40287;DHT22;25998;46.604;13.610;2023-10-08T02:50:31;15.50;99.90
40287;DHT22;25998;46.604;13.610;2023-10-08T02:53:43;15.50;99.90
40287;DHT22;25998;46.604;13.610;2023-10-08T02:56:54;15.40;99.90
40287;DHT22;25998;46.604;13.610;2023-10-08T03:00:10;15.40;99.90
40287;DHT22;25998;46.604;13.610;2023-10-08T03:03:23;15.30;99.90
40287;DHT22;25998;46.604;13.610;2023-10-08T03:06:35;15.30;99.90
40287;DHT22;25998;46.604;13.610;2023-10-08T03:09:50;15.40;99.90
40287;DHT22;25998;46.604;13.610;2023-10-08T03:13:01;15.40;99.90
40287;DHT22;25998;46.604;13.610;2023-10-08T03:16:15;15.40;99.90
40287;DHT22;25998;46.604;13.610;2023-10-08T03:19:32;15.40;99.90
40287;DHT22;25998;46.604;13.610;2023-10-08T03:22:43;15.40;99.90
40287;DHT22;25998;46.604;13.610;2023-10-08T03:25:57;15.50;99.90
40287;DHT22;25998;46.604;13.610;2023-10-08T03:29:21;15.60;99.90
40287;DHT22;25998;46.604;13.610;2023-10-08T03:32:32;15.70;99.90
40287;DHT22;25998;46.604;13.610;2023-10-08T03:35:45;15.70;99.90
40287;DHT22;25998;46.604;13.610;2023-10-08T03:38:56;15.60;99.90
40287;DHT22;25998;46.604;13.610;2023-10-08T03:42:08;15.60;99.90
40287;DHT22;25998;46.604;13.610;2023-10-08T03:45:20;15.50;99.90
40287;DHT22;25998;46.604;13.610;2023-10-08T03:48:50;15.40;99.90
40287;DHT22;25998;46.604;13.610;2023-10-08T03:52:07;15.40;99.90
40287;DHT22;25998;46.604;13.610;2023-10-08T03:55:18;15.30;99.90
40287;DHT22;25998;46.604;13.610;2023-10-08T03:58:28;15.30;99.90
40287;DHT22;25998;46.604;13.610;2023-10-08T04:01:51;15.30;99.90
40287;DHT22;25998;46.604;13.610;2023-10-08T04:05:06;15.40;99.90
40287;DHT22;25998;46.604;13.610;2023-10-08T04:08:29;15.40;99.90
40287;DHT22;25998;46.604;13.610;2023-10-08T04:12:08;15.40;99.90
40287;DHT22;25998;46.604;13.610;2023-10-08T04:15:21;15.30;99.90
40287;DHT22;25998;46.604;13.610;2023-10-08T04:18:33;15.50;99.90
40287;DHT22;25998;46.604;13.610;2023-10-08T04:21:50;15.30;99.90
40287;DHT22;25998;46.604;13.610;2023-10-08T04:25:11;15.30;99.90
40287;DHT22;25998;46.604;13.610;2023-10-08T04:28:23;15.20;99.90
40287;DHT22;25998;46.604;13.610;2023-10-08T04:31:39;15.40;99.90
40287;DHT22;25998;46.604;13.610;2023-10-08T04:34:54;15.40;99.90
40287;DHT22;25998;46.604;13.610;2023-10-08T04:38:08;15.50;99.90
40287;DHT22;25998;46.604;13.610;2023-10-08T04:41:19;15.40;99.90
40287;DHT22;25998;46.604;13.610;2023-10-08T04:44:30;15.40;99.90
40287;DHT22;25998;46.604;13.610;2023-10-08T04:47:42;15.40;99.90
40287;DHT22;25998;46.604;13.610;2023-10-08T04:50:53;15.30;99.90
40287;DHT22;25998;46.604;13.610;2023-10-08T04:54:11;15.40;99.90
40287;DHT22;25998;46.604;13.610;2023-10-08T04:57:28;15.30;99.90
40287;DHT22;25998;46.604;13.610;2023-10-08T05:00:40;15.40;99.90
40287;DHT22;25998;46.604;13.610;2023-10-08T05:04:04;15.50;99.90
40287;DHT22;25998;46.604;13.610;2023-10-08T05:07:15;15.60;99.90
40287;DHT22;25998;46.604;13.610;2023-10-08T05:10:32;15.40;99.90
40287;DHT22;25998;46.604;13.610;2023-10-08T05:13:55;15.50;99.90
40287;DHT22;25998;46.604;13.610;2023-10-08T05:17:16;15.40;99.90
40287;DHT22;25998;46.604;13.610;2023-10-08T05:20:26;15.50;99.90
40287;DHT22;25998;46.604;13.610;2023-10-08T05:23:56;15.40;99.90
40287;DHT22;25998;46.604;13.610;2023-10-08T05:27:40;15.50;99.90
40287;DHT22;25998;46.604;13.610;2023-10-08T05:31:07;15.40;99.90
40287;DHT22;25998;46.604;13.610;2023-10-08T05:34:24;15.50;99.90
40287;DHT22;25998;46.604;13.610;2023-10-08T05:37:44;15.60;99.90
40287;DHT22;25998;46.604;13.610;2023-10-08T05:40:58;15.40;99.90
40287;DHT22;25998;46.604;13.610;2023-10-08T05:44:09;15.50;99.90
40287;DHT22;25998;46.604;13.610;2023-10-08T05:47:34;15.50;99.90
40287;DHT22;25998;46.604;13.610;2023-10-08T05:50:45;15.40;99.90
40287;DHT22;25998;46.604;13.610;2023-10-08T05:54:24;15.50;99.90
40287;DHT22;25998;46.604;13.610;2023-10-08T05:57:38;15.60;99.90
40287;DHT22;25998;46.604;13.610;2023-10-08T06:00:49;15.70;99.90
40287;DHT22;25998;46.604;13.610;2023-10-08T06:04:01;15.70;99.90
40287;DHT22;25998;46.604;13.610;2023-10-08T06:07:31;15.80;99.90
40287;DHT22;25998;46.604;13.610;2023-10-08T06:10:58;15.90;99.90
40287;DHT22;25998;46.604;13.610;2023-10-08T06:14:11;15.90;99.90
40287;DHT22;25998;46.604;13.610;2023-10-08T06:17:37;15.90;99.90
40287;DHT22;25998;46.604;13.610;2023-10-08T06:21:07;15.80;99.90
40287;DHT22;25998;46.604;13.610;2023-10-08T06:24:22;15.80;99.90
40287;DHT22;25998;46.604;13.610;2023-10-08T06:27:33;15.90;99.90
40287;DHT22;25998;46.604;13.610;2023-10-08T06:30:43;15.90;99.90
40287;DHT22;25998;46.604;13.610;2023-10-08T06:33:54;16.10;99.90
40287;DHT22;25998;46.604;13.610;2023-10-08T06:37:05;16.10;99.90
40287;DHT22;25998;46.604;13.610;2023-10-08T06:40:17;16.10;99.90
40287;DHT22;25998;46.604;13.610;2023-10-08T06:43:53;16.20;99.90
40287;DHT22;25998;46.604;13.610;2023-10-08T06:47:13;16.20;99.90
40287;DHT22;25998;46.604;13.610;2023-10-08T06:50:26;16.40;99.90
40287;DHT22;25998;46.604;13.610;2023-10-08T06:53:37;16.60;99.90
40287;DHT22;25998;46.604;13.610;2023-10-08T06:56:49;16.60;99.90
40287;DHT22;25998;46.604;13.610;2023-10-08T07:00:03;16.70;99.90
40287;DHT22;25998;46.604;13.610;2023-10-08T07:03:16;16.70;99.90
40287;DHT22;25998;46.604;13.610;2023-10-08T07:06:28;16.70;99.90
40287;DHT22;25998;46.604;13.610;2023-10-08T07:09:44;16.80;99.90
40287;DHT22;25998;46.604;13.610;2023-10-08T07:12:55;17.00;99.90
40287;DHT22;25998;46.604;13.610;2023-10-08T07:16:06;17.20;99.90
40287;DHT22;25998;46.604;13.610;2023-10-08T07:19:22;17.20;99.90
40287;DHT22;25998;46.604;13.610;2023-10-08T07:22:43;17.30;99.90
40287;DHT22;25998;46.604;13.610;2023-10-08T07:25:55;17.20;99.90
40287;DHT22;25998;46.604;13.610;2023-10-08T07:29:21;17.30;99.90
40287;DHT22;25998;46.604;13.610;2023-10-08T07:32:32;17.30;99.90
40287;DHT22;25998;46.604;13.610;2023-10-08T07:35:45;17.50;99.90
40287;DHT22;25998;46.604;13.610;2023-10-08T07:39:04;17.50;99.90
40287;DHT22;25998;46.604;13.610;2023-10-08T07:42:19;17.40;99.90
40287;DHT22;25998;46.604;13.610;2023-10-08T07:45:30;17.50;99.90
40287;DHT22;25998;46.604;13.610;2023-10-08T07:48:46;17.40;99.90
40287;DHT22;25998;46.604;13.610;2023-10-08T07:51:58;17.50;99.90
40287;DHT22;25998;46.604;13.610;2023-10-08T07:55:11;17.60;99.90
40287;DHT22;25998;46.604;13.610;2023-10-08T07:58:27;17.70;99.90
40287;DHT22;25998;46.604;13.610;2023-10-08T08:01:38;17.60;99.90
40287;DHT22;25998;46.604;13.610;2023-10-08T08:04:51;17.70;99.90
40287;DHT22;25998;46.604;13.610;2023-10-08T08:08:03;17.90;99.90
40287;DHT22;25998;46.604;13.610;2023-10-08T08:11:16;18.10;99.90
40287;DHT22;25998;46.604;13.610;2023-10-08T08:14:35;18.10;99.90
40287;DHT22;25998;46.604;13.610;2023-10-08T08:17:48;18.10;99.90
40287;DHT22;25998;46.604;13.610;2023-10-08T08:21:00;18.10;99.90
40287;DHT22;25998;46.604;13.610;2023-10-08T08:24:13;18.10;99.90
40287;DHT22;25998;46.604;13.610;2023-10-08T08:27:25;18.20;99.90
40287;DHT22;25998;46.604;13.610;2023-10-08T08:30:42;18.30;99.90
40287;DHT22;25998;46.604;13.610;2023-10-08T08:33:58;18.30;99.90
40287;DHT22;25998;46.604;13.610;2023-10-08T08:37:13;18.40;99.90
40287;DHT22;25998;46.604;13.610;2023-10-08T08:40:24;18.60;99.90
40287;DHT22;25998;46.604;13.610;2023-10-08T08:43:35;19.10;99.90
40287;DHT22;25998;46.604;13.610;2023-10-08T08:46:47;19.50;99.90
40287;DHT22;25998;46.604;13.610;2023-10-08T08:49:59;19.70;99.90
40287;DHT22;25998;46.604;13.610;2023-10-08T08:53:18;19.90;99.90
40287;DHT22;25998;46.604;13.610;2023-10-08T08:56:30;19.70;99.90
40287;DHT22;25998;46.604;13.610;2023-10-08T08:59:53;19.60;99.90
40287;DHT22;25998;46.604;13.610;2023-10-08T09:03:04;19.70;99.90
40287;DHT22;25998;46.604;13.610;2023-10-08T09:06:17;19.70;99.90
40287;DHT22;25998;46.604;13.610;2023-10-08T09:09:35;19.90;99.90
40287;DHT22;25998;46.604;13.610;2023-10-08T09:12:49;20.10;99.90
40287;DHT22;25998;46.604;13.610;2023-10-08T09:16:08;20.20;99.90
40287;DHT22;25998;46.604;13.610;2023-10-08T09:19:23;20.40;99.90
40287;DHT22;25998;46.604;13.610;2023-10-08T09:22:35;20.40;99.90
40287;DHT22;25998;46.604;13.610;2023-10-08T09:25:46;20.50;99.90
40287;DHT22;25998;46.604;13.610;2023-10-08T09:29:00;20.70;99.90
40287;DHT22;25998;46.604;13.610;2023-10-08T09:32:13;20.90;99.90
40287;DHT22;25998;46.604;13.610;2023-10-08T09:35:24;20.90;99.90
40287;DHT22;25998;46.604;13.610;2023-10-08T09:38:37;21.20;99.90
40287;DHT22;25998;46.604;13.610;2023-10-08T09:41:50;21.20;99.90
40287;DHT22;25998;46.604;13.610;2023-10-08T09:45:01;21.20;99.90
40287;DHT22;25998;46.604;13.610;2023-10-08T09:48:18;21.20;99.90
40287;DHT22;25998;46.604;13.610;2023-10-08T09:51:31;21.40;99.90
40287;DHT22;25998;46.604;13.610;2023-10-08T09:54:54;21.40;99.90
40287;DHT22;25998;46.604;13.610;2023-10-08T09:58:06;21.10;99.90
40287;DHT22;25998;46.604;13.610;2023-10-08T10:01:19;21.00;99.90
40287;DHT22;25998;46.604;13.610;2023-10-08T10:04:31;21.00;99.90
40287;DHT22;25998;46.604;13.610;2023-10-08T10:07:42;21.20;99.90
40287;DHT22;25998;46.604;13.610;2023-10-08T10:11:00;21.40;99.90
40287;DHT22;25998;46.604;13.610;2023-10-08T10:14:11;21.40;99.90
40287;DHT22;25998;46.604;13.610;2023-10-08T10:17:27;21.40;99.90
40287;DHT22;25998;46.604;13.610;2023-10-08T10:20:40;21.40;99.90
40287;DHT22;25998;46.604;13.610;2023-10-08T10:23:56;21.30;99.90
40287;DHT22;25998;46.604;13.610;2023-10-08T10:27:12;21.30;99.90
40287;DHT22;25998;46.604;13.610;2023-10-08T10:30:25;21.50;99.90
40287;DHT22;25998;46.604;13.610;2023-10-08T10:33:38;21.60;99.90
40287;DHT22;25998;46.604;13.610;2023-10-08T10:36:51;21.60;99.90
40287;DHT22;25998;46.604;13.610;2023-10-08T10:40:07;21.80;99.90
40287;DHT22;25998;46.604;13.610;2023-10-08T10:43:26;21.90;99.90
40287;DHT22;25998;46.604;13.610;2023-10-08T10:46:46;21.80;99.90
40287;DHT22;25998;46.604;13.610;2023-10-08T10:50:23;21.50;99.90
40287;DHT22;25998;46.604;13.610;2023-10-08T10:53:42;21.50;99.90
40287;DHT22;25998;46.604;13.610;2023-10-08T10:57:08;21.40;99.90
40287;DHT22;25998;46.604;13.610;2023-10-08T11:00:28;21.60;99.90
40287;DHT22;25998;46.604;13.610;2023-10-08T11:03:44;21.70;99.90
40287;DHT22;25998;46.604;13.610;2023-10-08T11:06:59;21.70;99.90
40287;DHT22;25998;46.604;13.610;2023-10-08T11:10:11;22.00;99.90
40287;DHT22;25998;46.604;13.610;2023-10-08T11:13:26;22.40;99.90
40287;DHT22;25998;46.604;13.610;2023-10-08T11:16:47;22.70;99.90
40287;DHT22;25998;46.604;13.610;2023-10-08T11:19:58;23.00;99.90
40287;DHT22;25998;46.604;13.610;2023-10-08T11:23:10;23.60;99.90
40287;DHT22;25998;46.604;13.610;2023-10-08T11:26:35;24.10;99.90
40287;DHT22;25998;46.604;13.610;2023-10-08T11:29:49;24.30;99.90
40287;DHT22;25998;46.604;13.610;2023-10-08T11:33:10;23.90;99.90
40287;DHT22;25998;46.604;13.610;2023-10-08T11:36:27;23.70;99.90
40287;DHT22;25998;46.604;13.610;2023-10-08T11:39:42;23.40;99.90
40287;DHT22;25998;46.604;13.610;2023-10-08T11:42:59;23.50;99.90
40287;DHT22;25998;46.604;13.610;2023-10-08T11:46:10;23.60;99.90
40287;DHT22;25998;46.604;13.610;2023-10-08T11:49:25;23.90;99.90
40287;DHT22;25998;46.604;13.610;2023-10-08T11:52:37;23.90;99.90
40287;DHT22;25998;46.604;13.610;2023-10-08T11:55:52;24.00;99.90
40287;DHT22;25998;46.604;13.610;2023-10-08T11:59:07;23.90;99.90
40287;DHT22;25998;46.604;13.610;2023-10-08T12:02:20;24.00;99.90
40287;DHT22;25998;46.604;13.610;2023-10-08T12:05:31;24.00;99.90
40287;DHT22;25998;46.604;13.610;2023-10-08T12:08:43;23.90;99.90
40287;DHT22;25998;46.604;13.610;2023-10-08T12:11:57;24.00;99.90
40287;DHT22;25998;46.604;13.610;2023-10-08T12:15:09;23.90;99.90
40287;DHT22;25998;46.604;13.610;2023-10-08T12:18:20;23.70;99.90
40287;DHT22;25998;46.604;13.610;2023-10-08T12:21:36;23.80;99.90
40287;DHT22;25998;46.604;13.610;2023-10-08T12:24:47;24.00;99.90
40287;DHT22;25998;46.604;13.610;2023-10-08T12:28:01;24.10;99.00
40287;DHT22;25998;46.604;13.610;2023-10-08T12:31:18;24.20;99.00
40287;DHT22;25998;46.604;13.610;2023-10-08T12:34:32;24.10;98.10
40287;DHT22;25998;46.604;13.610;2023-10-08T12:37:45;24.10;97.40
40287;DHT22;25998;46.604;13.610;2023-10-08T12:40:56;24.10;96.70
40287;DHT22;25998;46.604;13.610;2023-10-08T12:44:10;24.00;99.70
40287;DHT22;25998;46.604;13.610;2023-10-08T12:47:21;24.00;97.60
40287;DHT22;25998;46.604;13.610;2023-10-08T12:50:33;24.00;97.00
40287;DHT22;25998;46.604;13.610;2023-10-08T12:53:54;24.10;98.10
40287;DHT22;25998;46.604;13.610;2023-10-08T12:57:17;23.90;99.90
40287;DHT22;25998;46.604;13.610;2023-10-08T13:00:29;24.00;99.90
40287;DHT22;25998;46.604;13.610;2023-10-08T13:03:42;23.90;99.90
40287;DHT22;25998;46.604;13.610;2023-10-08T13:06:54;23.70;99.90
40287;DHT22;25998;46.604;13.610;2023-10-08T13:10:08;23.60;99.90
40287;DHT22;25998;46.604;13.610;2023-10-08T13:13:21;23.50;99.90
40287;DHT22;25998;46.604;13.610;2023-10-08T13:16:36;23.40;99.90
40287;DHT22;25998;46.604;13.610;2023-10-08T13:19:47;23.20;99.90
40287;DHT22;25998;46.604;13.610;2023-10-08T13:23:01;23.10;99.90
40287;DHT22;25998;46.604;13.610;2023-10-08T13:26:12;23.00;99.90
40287;DHT22;25998;46.604;13.610;2023-10-08T13:29:27;23.10;99.90
40287;DHT22;25998;46.604;13.610;2023-10-08T13:32:43;23.10;99.90
40287;DHT22;25998;46.604;13.610;2023-10-08T13:35:54;23.00;99.90
40287;DHT22;25998;46.604;13.610;2023-10-08T13:39:06;22.90;99.90
40287;DHT22;25998;46.604;13.610;2023-10-08T13:42:20;22.90;99.90
40287;DHT22;25998;46.604;13.610;2023-10-08T13:45:31;22.90;99.90
40287;DHT22;25998;46.604;13.610;2023-10-08T13:48:47;23.00;99.90
40287;DHT22;25998;46.604;13.610;2023-10-08T13:51:59;23.20;99.90
40287;DHT22;25998;46.604;13.610;2023-10-08T13:55:10;23.30;99.90
40287;DHT22;25998;46.604;13.610;2023-10-08T13:58:24;23.20;99.90
40287;DHT22;25998;46.604;13.610;2023-10-08T14:01:35;23.10;99.90
40287;DHT22;25998;46.604;13.610;2023-10-08T14:04:46;23.10;99.90
40287;DHT22;25998;46.604;13.610;2023-10-08T14:08:00;23.10;99.90
40287;DHT22;25998;46.604;13.610;2023-10-08T14:11:12;23.10;99.90
40287;DHT22;25998;46.604;13.610;2023-10-08T14:14:25;23.10;99.90
40287;DHT22;25998;46.604;13.610;2023-10-08T14:17:40;23.00;99.90
40287;DHT22;25998;46.604;13.610;2023-10-08T14:20:53;22.90;99.90
40287;DHT22;25998;46.604;13.610;2023-10-08T14:24:05;22.90;99.90
40287;DHT22;25998;46.604;13.610;2023-10-08T14:27:26;23.00;99.90
40287;DHT22;25998;46.604;13.610;2023-10-08T14:30:44;22.90;99.90
40287;DHT22;25998;46.604;13.610;2023-10-08T14:33:56;23.00;99.90
40287;DHT22;25998;46.604;13.610;2023-10-08T14:37:29;22.90;99.90
40287;DHT22;25998;46.604;13.610;2023-10-08T14:40:59;22.80;99.90
40287;DHT22;25998;46.604;13.610;2023-10-08T14:44:28;22.80;99.90
40287;DHT22;25998;46.604;13.610;2023-10-08T14:47:39;22.60;99.90
40287;DHT22;25998;46.604;13.610;2023-10-08T14:50:51;22.50;99.90
40287;DHT22;25998;46.604;13.610;2023-10-08T14:54:02;22.50;99.90
40287;DHT22;25998;46.604;13.610;2023-10-08T14:57:14;22.40;99.90
40287;DHT22;25998;46.604;13.610;2023-10-08T15:00:25;22.40;99.90
40287;DHT22;25998;46.604;13.610;2023-10-08T15:03:36;22.30;99.90
40287;DHT22;25998;46.604;13.610;2023-10-08T15:06:48;22.20;99.90
40287;DHT22;25998;46.604;13.610;2023-10-08T15:10:00;22.10;99.90
40287;DHT22;25998;46.604;13.610;2023-10-08T15:13:11;22.00;99.90
40287;DHT22;25998;46.604;13.610;2023-10-08T15:16:22;22.10;99.90
40287;DHT22;25998;46.604;13.610;2023-10-08T15:19:34;22.20;99.90
40287;DHT22;25998;46.604;13.610;2023-10-08T15:22:46;21.80;99.90
40287;DHT22;25998;46.604;13.610;2023-10-08T15:25:57;21.50;99.90
40287;DHT22;25998;46.604;13.610;2023-10-08T15:29:08;21.60;99.90
40287;DHT22;25998;46.604;13.610;2023-10-08T15:32:20;21.60;99.90
40287;DHT22;25998;46.604;13.610;2023-10-08T15:35:31;21.20;99.90
40287;DHT22;25998;46.604;13.610;2023-10-08T15:38:43;20.90;99.90
40287;DHT22;25998;46.604;13.610;2023-10-08T15:41:54;21.00;99.90
40287;DHT22;25998;46.604;13.610;2023-10-08T15:45:06;20.90;99.90
40287;DHT22;25998;46.604;13.610;2023-10-08T15:48:17;20.80;99.90
40287;DHT22;25998;46.604;13.610;2023-10-08T15:51:30;20.60;99.90
40287;DHT22;25998;46.604;13.610;2023-10-08T15:54:44;20.40;99.90
40287;DHT22;25998;46.604;13.610;2023-10-08T15:57:56;20.30;99.90
40287;DHT22;25998;46.604;13.610;2023-10-08T16:01:07;20.30;99.90
40287;DHT22;25998;46.604;13.610;2023-10-08T16:04:18;20.50;99.90
40287;DHT22;25998;46.604;13.610;2023-10-08T16:07:29;20.50;99.90
40287;DHT22;25998;46.604;13.610;2023-10-08T16:10:43;20.20;99.90
40287;DHT22;25998;46.604;13.610;2023-10-08T16:13:53;19.90;99.90
40287;DHT22;25998;46.604;13.610;2023-10-08T16:17:04;19.90;99.90
40287;DHT22;25998;46.604;13.610;2023-10-08T16:20:18;19.80;99.90
40287;DHT22;25998;46.604;13.610;2023-10-08T16:23:29;19.70;99.90
40287;DHT22;25998;46.604;13.610;2023-10-08T16:26:43;19.60;99.90
40287;DHT22;25998;46.604;13.610;2023-10-08T16:29:54;19.90;99.90
40287;DHT22;25998;46.604;13.610;2023-10-08T16:33:07;19.90;99.90
40287;DHT22;25998;46.604;13.610;2023-10-08T16:36:20;19.60;99.90
40287;DHT22;25998;46.604;13.610;2023-10-08T16:39:31;19.40;99.90
40287;DHT22;25998;46.604;13.610;2023-10-08T16:42:42;19.50;99.90
40287;DHT22;25998;46.604;13.610;2023-10-08T16:45:52;19.70;99.90
40287;DHT22;25998;46.604;13.610;2023-10-08T16:49:04;19.70;99.90
40287;DHT22;25998;46.604;13.610;2023-10-08T16:52:15;19.40;99.90
40287;DHT22;25998;46.604;13.610;2023-10-08T16:55:26;19.20;99.90
40287;DHT22;25998;46.604;13.610;2023-10-08T16:58:38;19.30;99.90
40287;DHT22;25998;46.604;13.610;2023-10-08T17:01:48;19.10;99.90
40287;DHT22;25998;46.604;13.610;2023-10-08T17:05:00;19.20;99.90
40287;DHT22;25998;46.604;13.610;2023-10-08T17:08:11;19.10;99.90
40287;DHT22;25998;46.604;13.610;2023-10-08T17:11:22;19.10;99.90
40287;DHT22;25998;46.604;13.610;2023-10-08T17:14:34;18.90;99.90
40287;DHT22;25998;46.604;13.610;2023-10-08T17:17:45;18.80;99.90
40287;DHT22;25998;46.604;13.610;2023-10-08T17:20:56;18.80;99.90
40287;DHT22;25998;46.604;13.610;2023-10-08T17:24:07;18.70;99.90
40287;DHT22;25998;46.604;13.610;2023-10-08T17:27:19;18.70;99.90
40287;DHT22;25998;46.604;13.610;2023-10-08T17:30:30;18.90;99.90
40287;DHT22;25998;46.604;13.610;2023-10-08T17:33:42;18.80;99.90
40287;DHT22;25998;46.604;13.610;2023-10-08T17:36:55;19.00;99.90
40287;DHT22;25998;46.604;13.610;2023-10-08T17:40:06;19.10;99.90
40287;DHT22;25998;46.604;13.610;2023-10-08T17:43:23;19.10;99.90
40287;DHT22;25998;46.604;13.610;2023-10-08T17:46:34;18.80;99.90
40287;DHT22;25998;46.604;13.610;2023-10-08T17:49:48;18.70;99.90
40287;DHT22;25998;46.604;13.610;2023-10-08T17:52:59;18.50;99.90
40287;DHT22;25998;46.604;13.610;2023-10-08T17:56:11;18.60;99.90
40287;DHT22;25998;46.604;13.610;2023-10-08T17:59:22;18.60;99.90
40287;DHT22;25998;46.604;13.610;2023-10-08T18:02:33;18.50;99.90
40287;DHT22;25998;46.604;13.610;2023-10-08T18:05:45;18.50;99.90
40287;DHT22;25998;46.604;13.610;2023-10-08T18:08:56;18.50;99.90
40287;DHT22;25998;46.604;13.610;2023-10-08T18:12:07;18.50;99.90
40287;DHT22;25998;46.604;13.610;2023-10-08T18:15:19;18.50;99.90
40287;DHT22;25998;46.604;13.610;2023-10-08T18:18:33;18.50;99.90
40287;DHT22;25998;46.604;13.610;2023-10-08T18:21:45;18.40;99.90
40287;DHT22;25998;46.604;13.610;2023-10-08T18:24:56;18.30;99.90
40287;DHT22;25998;46.604;13.610;2023-10-08T18:28:06;18.40;99.90
40287;DHT22;25998;46.604;13.610;2023-10-08T18:31:19;18.40;99.90
40287;DHT22;25998;46.604;13.610;2023-10-08T18:34:29;18.30;99.90
40287;DHT22;25998;46.604;13.610;2023-10-08T18:37:40;18.30;99.90
40287;DHT22;25998;46.604;13.610;2023-10-08T18:40:51;18.30;99.90
40287;DHT22;25998;46.604;13.610;2023-10-08T18:44:02;18.20;99.90
40287;DHT22;25998;46.604;13.610;2023-10-08T18:47:14;18.20;99.90
40287;DHT22;25998;46.604;13.610;2023-10-08T18:50:25;18.40;99.90
40287;DHT22;25998;46.604;13.610;2023-10-08T18:53:37;18.30;99.90
40287;DHT22;25998;46.604;13.610;2023-10-08T18:56:48;18.10;99.90
40287;DHT22;25998;46.604;13.610;2023-10-08T19:00:01;18.00;99.90
40287;DHT22;25998;46.604;13.610;2023-10-08T19:03:19;18.10;99.90
40287;DHT22;25998;46.604;13.610;2023-10-08T19:06:30;18.10;99.90
40287;DHT22;25998;46.604;13.610;2023-10-08T19:09:41;18.00;99.90
40287;DHT22;25998;46.604;13.610;2023-10-08T19:12:54;17.90;99.90
40287;DHT22;25998;46.604;13.610;2023-10-08T19:16:06;18.00;99.90
40287;DHT22;25998;46.604;13.610;2023-10-08T19:19:17;18.10;99.90
40287;DHT22;25998;46.604;13.610;2023-10-08T19:22:30;18.20;99.90
40287;DHT22;25998;46.604;13.610;2023-10-08T19:25:49;18.10;99.90
40287;DHT22;25998;46.604;13.610;2023-10-08T19:29:01;18.00;99.90
40287;DHT22;25998;46.604;13.610;2023-10-08T19:32:12;17.90;99.90
40287;DHT22;25998;46.604;13.610;2023-10-08T19:35:23;17.90;99.90
40287;DHT22;25998;46.604;13.610;2023-10-08T19:38:34;18.00;99.90
40287;DHT22;25998;46.604;13.610;2023-10-08T19:41:45;17.90;99.90
40287;DHT22;25998;46.604;13.610;2023-10-08T19:44:56;17.90;99.80
40287;DHT22;25998;46.604;13.610;2023-10-08T19:48:09;18.00;99.90
40287;DHT22;25998;46.604;13.610;2023-10-08T19:51:21;17.90;99.90
40287;DHT22;25998;46.604;13.610;2023-10-08T19:54:32;17.80;99.90
40287;DHT22;25998;46.604;13.610;2023-10-08T19:57:45;17.80;99.90
40287;DHT22;25998;46.604;13.610;2023-10-08T20:00:56;17.90;99.90
40287;DHT22;25998;46.604;13.610;2023-10-08T20:04:07;17.80;99.90
40287;DHT22;25998;46.604;13.610;2023-10-08T20:07:18;17.80;99.90